Time;durP1;ratioP1;P1;durP2;ratioP2;P2;SDS_P1;SDS_P2;PMS_P1;PMS_P2;Temp;Humidity;BMP_temperature;BMP_pressure;BME280_temperature;BME280_humidity;BME280_pressure;Samples;Min_cycle;Max_cycle;Signal;HPM_P1;HPM_P2
2022/04/05 00:00:48;;;;;;;16.17;9.30;;;;;;;1.61;98.98;98115.00;4175694;28;20239;-64
2022/04/05 00:03:15;;;;;;;19.63;10.77;;;;;;;1.61;99.75;98103.69;4193475;28;20232;-68
2022/04/05 00:05:42;;;;;;;20.77;11.10;;;;;;;1.56;99.94;98093.66;4180250;28;23923;-68
2022/04/05 00:08:08;;;;;;;20.47;10.63;;;;;;;1.57;99.97;98097.94;4188530;28;21598;-68
2022/04/05 00:10:36;;;;;;;19.47;10.80;;;;;;;1.59;100.00;98092.53;4178273;28;20241;-66
2022/04/05 00:13:06;;;;;;;20.43;11.83;;;;;;;1.59;100.00;98093.38;4175030;28;22268;-65
2022/04/05 00:15:35;;;;;;;18.07;11.20;;;;;;;1.60;100.00;98084.53;4175465;28;22079;-69
2022/04/05 00:18:02;;;;;;;19.17;11.03;;;;;;;1.67;100.00;98088.22;4176319;28;20228;-67
2022/04/05 00:20:29;;;;;;;18.23;11.07;;;;;;;1.67;100.00;98088.22;4193793;28;21258;-67
2022/04/05 00:22:58;;;;;;;19.80;10.63;;;;;;;1.67;100.00;98074.28;4167828;28;20232;-66
2022/04/05 00:25:25;;;;;;;16.47;10.20;;;;;;;1.71;99.91;98069.56;4178392;28;22924;-67
2022/04/05 00:27:52;;;;;;;21.00;10.37;;;;;;;1.66;100.00;98068.22;4189753;28;21252;-67
2022/04/05 00:30:19;;;;;;;16.00;10.60;;;;;;;1.67;100.00;98059.38;4185394;28;20241;-67
2022/04/05 00:32:46;;;;;;;15.77;10.27;;;;;;;1.69;100.00;98062.69;4182478;28;22818;-68
2022/04/05 00:35:12;;;;;;;17.13;11.07;;;;;;;1.68;100.00;98060.19;4180643;28;21724;-65
2022/04/05 00:37:39;;;;;;;15.77;10.60;;;;;;;1.72;99.96;98051.06;4168621;28;20271;-67
2022/04/05 00:40:06;;;;;;;14.80;10.53;;;;;;;1.73;99.97;98034.38;4202184;28;20307;-68
2022/04/05 00:42:36;;;;;;;13.70;9.63;;;;;;;1.74;99.84;98048.31;4184803;28;20265;-67
2022/04/05 00:45:06;;;;;;;13.90;8.73;;;;;;;1.73;99.93;98054.53;4180198;28;20248;-65
2022/04/05 00:47:34;;;;;;;14.97;9.93;;;;;;;1.71;100.00;98033.72;4184452;28;20245;-68
2022/04/05 00:50:01;;;;;;;18.30;9.70;;;;;;;1.67;100.00;98027.94;4186905;28;21666;-67
2022/04/05 00:52:27;;;;;;;14.57;9.70;;;;;;;1.60;100.00;98026.88;4181008;28;20663;-65
2022/04/05 00:54:54;;;;;;;13.23;9.30;;;;;;;1.54;100.00;98029.25;4180432;28;20247;-67
2022/04/05 00:57:22;;;;;;;17.27;10.30;;;;;;;1.44;100.00;98021.44;4194041;28;20691;-67
2022/04/05 00:59:56;;;;;;;16.00;10.27;;;;;;;1.47;100.00;98021.16;4173060;28;20232;-67
2022/04/05 01:02:25;;;;;;;17.30;10.23;;;;;;;1.40;100.00;98010.44;4172817;28;20234;-67
2022/04/05 01:04:52;;;;;;;16.93;10.77;;;;;;;1.46;100.00;98009.84;4174784;28;22442;-66
2022/04/05 01:07:21;;;;;;;15.63;10.80;;;;;;;1.41;100.00;98009.47;4182403;28;20283;-68
2022/04/05 01:09:47;;;;;;;15.20;11.13;;;;;;;1.47;100.00;98011.50;4177695;28;20229;-67
2022/04/05 01:12:13;;;;;;;15.47;10.40;;;;;;;1.47;100.00;98011.50;4171457;28;22460;-66
2022/04/05 01:14:41;;;;;;;19.17;9.53;;;;;;;1.51;100.00;98006.78;4182502;28;22066;-68
2022/04/05 01:17:08;;;;;;;14.00;10.30;;;;;;;1.48;100.00;98013.16;4193813;28;24452;-69
2022/04/05 01:19:34;;;;;;;14.57;10.03;;;;;;;1.49;100.00;98008.72;4189009;28;20295;-65
2022/04/05 01:22:02;;;;;;;14.87;9.40;;;;;;;1.53;100.00;98002.22;4184401;28;20626;-67
2022/04/05 01:24:29;;;;;;;16.90;10.57;;;;;;;1.43;100.00;97999.66;4192715;28;20705;-67
2022/04/05 01:26:57;;;;;;;14.27;9.87;;;;;;;1.47;100.00;98006.28;4207175;28;22953;-67
2022/04/05 01:29:27;;;;;;;14.40;9.57;;;;;;;1.41;100.00;98006.84;4187252;28;20516;-69
2022/04/05 01:32:07;;;;;;;18.53;10.97;;;;;;;1.36;100.00;97997.75;4178650;28;20421;-67
2022/04/05 01:34:35;;;;;;;18.00;10.50;;;;;;;1.35;100.00;98001.38;4203611;28;21648;-68
2022/04/05 01:37:04;;;;;;;17.10;11.40;;;;;;;1.36;100.00;98001.22;4194079;28;22387;-67
2022/04/05 01:39:33;;;;;;;17.63;11.23;;;;;;;1.41;100.00;97995.56;4223604;28;21574;-66
2022/04/05 01:42:02;;;;;;;14.80;11.13;;;;;;;1.45;100.00;97999.50;4184216;28;20237;-67
2022/04/05 01:44:30;;;;;;;16.87;11.43;;;;;;;1.46;100.00;97978.41;4181609;28;20659;-65
2022/04/05 01:46:57;;;;;;;19.17;11.73;;;;;;;1.46;100.00;97983.63;4182128;28;20229;-68
2022/04/05 01:49:23;;;;;;;19.10;11.73;;;;;;;1.43;100.00;97973.47;4190877;28;20233;-68
2022/04/05 01:51:50;;;;;;;18.83;12.20;;;;;;;1.46;100.00;97975.78;4173368;28;21879;-66
2022/04/05 01:54:17;;;;;;;18.53;12.50;;;;;;;1.49;100.00;97977.28;4194047;28;20452;-66
2022/04/05 01:56:49;;;;;;;19.90;12.17;;;;;;;1.45;100.00;97974.16;4172074;28;21825;-68
2022/04/05 01:59:18;;;;;;;18.17;12.87;;;;;;;1.41;100.00;97980.66;4170687;28;20291;-67
2022/04/05 02:01:45;;;;;;;20.83;13.60;;;;;;;1.36;100.00;97972.41;4155846;28;20246;-68
2022/04/05 02:04:12;;;;;;;18.93;13.87;;;;;;;1.41;100.00;97964.94;4203745;28;23038;-67
2022/04/05 02:06:40;;;;;;;19.40;13.90;;;;;;;1.51;100.00;97969.28;4166979;28;20241;-67
2022/04/05 02:09:07;;;;;;;22.90;14.90;;;;;;;1.54;100.00;97959.31;4184903;28;20338;-67
2022/04/05 02:11:34;;;;;;;23.87;14.53;;;;;;;1.59;100.00;97967.56;4192812;28;22482;-66
2022/04/05 02:14:01;;;;;;;22.83;13.80;;;;;;;1.63;100.00;97963.66;4184039;28;20254;-66
2022/04/05 02:16:28;;;;;;;23.80;14.90;;;;;;;1.62;100.00;97938.44;4175519;28;20246;-70
2022/04/05 02:18:55;;;;;;;22.00;15.03;;;;;;;1.61;100.00;97949.88;4189240;28;21031;-68
2022/04/05 02:21:22;;;;;;;25.47;15.13;;;;;;;1.64;100.00;97943.53;4174778;28;20228;-67
2022/04/05 02:23:48;;;;;;;26.80;16.13;;;;;;;1.59;100.00;97946.59;4193613;28;20237;-66
2022/04/05 02:26:15;;;;;;;25.50;16.03;;;;;;;1.58;100.00;97944.94;4175017;28;20235;-68
2022/04/05 02:28:42;;;;;;;27.90;17.60;;;;;;;1.61;100.00;97939.38;4180047;28;20242;-67
2022/04/05 02:31:09;;;;;;;24.33;15.63;;;;;;;1.63;100.00;97931.38;4176219;28;20310;-68
2022/04/05 02:33:35;;;;;;;36.33;16.30;;;;;;;1.69;100.00;97931.63;4177833;28;20244;-67
2022/04/05 02:36:03;;;;;;;26.17;16.53;;;;;;;1.75;100.00;97929.34;4184652;28;20233;-66
2022/04/05 02:38:30;;;;;;;26.33;15.83;;;;;;;1.81;100.00;97931.38;4192191;28;20370;-68
2022/04/05 02:40:57;;;;;;;23.90;16.60;;;;;;;1.69;100.00;97926.38;4191388;28;20289;-67
2022/04/05 02:43:24;;;;;;;23.47;16.53;;;;;;;1.75;100.00;97916.25;4164506;28;26001;-66
2022/04/05 02:45:55;;;;;;;25.27;16.30;;;;;;;1.81;100.00;97934.00;4183458;28;20229;-67
2022/04/05 02:48:25;;;;;;;26.37;17.10;;;;;;;1.87;100.00;97926.38;4183756;28;22835;-67
2022/04/05 02:50:51;;;;;;;26.57;16.97;;;;;;;1.80;100.00;97930.56;4196756;28;20331;-67
2022/04/05 02:53:18;;;;;;;26.70;17.10;;;;;;;1.81;100.00;97929.59;4197690;28;20611;-69
2022/04/05 02:55:46;;;;;;;29.17;18.47;;;;;;;1.79;100.00;97931.53;4174452;28;20302;-68
2022/04/05 02:58:12;;;;;;;27.33;18.60;;;;;;;1.86;100.00;97926.50;4186849;28;22801;-67
2022/04/05 03:00:39;;;;;;;27.07;17.67;;;;;;;1.87;100.00;97922.91;4185519;28;20264;-68
2022/04/05 03:03:06;;;;;;;29.63;19.07;;;;;;;1.85;100.00;97923.06;4185679;28;22182;-68
2022/04/05 03:05:32;;;;;;;28.47;18.40;;;;;;;1.89;100.00;97920.94;4182389;28;20232;-69
2022/04/05 03:07:59;;;;;;;31.33;20.77;;;;;;;1.88;100.00;97919.31;4171153;28;22444;-67
2022/04/05 03:10:26;;;;;;;26.93;18.83;;;;;;;1.93;100.00;97911.81;4198223;28;23920;-68
2022/04/05 03:12:54;;;;;;;30.43;19.93;;;;;;;2.00;100.00;97914.66;4193637;28;20339;-68
2022/04/05 03:15:20;;;;;;;28.27;19.30;;;;;;;2.10;100.00;97913.56;4178859;28;20229;-67
2022/04/05 03:17:47;;;;;;;29.67;18.90;;;;;;;2.11;100.00;97919.66;4178757;28;20310;-68
2022/04/05 03:20:14;;;;;;;26.77;17.97;;;;;;;2.17;100.00;97923.44;4175038;28;20247;-69
2022/04/05 03:22:42;;;;;;;29.57;18.53;;;;;;;2.17;100.00;97924.28;4171694;28;20234;-66
2022/04/05 03:25:09;;;;;;;28.07;19.23;;;;;;;2.19;100.00;97911.00;4177207;28;20368;-67
2022/04/05 03:27:40;;;;;;;28.90;19.20;;;;;;;2.24;100.00;97908.75;4187778;28;20933;-68
2022/04/05 03:30:09;;;;;;;30.57;18.13;;;;;;;2.29;100.00;97899.44;4180794;28;20241;-69
2022/04/05 03:32:36;;;;;;;24.90;17.93;;;;;;;2.36;100.00;97902.25;4161945;28;20773;-69
2022/04/05 03:35:04;;;;;;;28.47;18.97;;;;;;;2.37;100.00;97910.97;4187137;28;20333;-67
2022/04/05 03:37:30;;;;;;;29.37;19.27;;;;;;;2.38;100.00;97913.41;4171954;28;21502;-67
2022/04/05 03:39:57;;;;;;;31.00;20.00;;;;;;;2.35;100.00;97916.34;4175084;28;20336;-66
2022/04/05 03:42:23;;;;;;;38.73;21.77;;;;;;;2.41;100.00;97912.28;4174771;28;20230;-68
2022/04/05 03:44:50;;;;;;;34.67;21.43;;;;;;;2.44;100.00;97904.94;4177914;28;20248;-69
2022/04/05 03:47:16;;;;;;;32.47;21.10;;;;;;;2.40;100.00;97918.50;4172226;28;20238;-66
2022/04/05 03:49:43;;;;;;;32.57;20.97;;;;;;;2.45;100.00;97905.75;4166592;28;20298;-68
2022/04/05 03:52:10;;;;;;;31.90;21.20;;;;;;;2.46;100.00;97910.84;4176581;28;20250;-67
2022/04/05 03:54:36;;;;;;;29.13;20.17;;;;;;;2.48;100.00;97910.66;4183167;28;20328;-67
2022/04/05 03:57:03;;;;;;;29.43;19.30;;;;;;;2.53;100.00;97904.00;4177172;28;20233;-68
2022/04/05 03:59:30;;;;;;;33.83;19.83;;;;;;;2.56;100.00;97905.47;4184876;28;20628;-67
2022/04/05 04:01:56;;;;;;;31.93;20.37;;;;;;;2.58;100.00;97913.22;4190877;28;22124;-67
2022/04/05 04:04:23;;;;;;;29.87;19.40;;;;;;;2.55;100.00;97901.19;4182828;28;20243;-68
2022/04/05 04:06:49;;;;;;;29.27;18.80;;;;;;;2.64;100.00;97904.69;4175606;28;20253;-67
2022/04/05 04:09:16;;;;;;;30.20;19.47;;;;;;;2.67;100.00;97899.13;4190416;28;20248;-69
2022/04/05 04:11:44;;;;;;;29.67;19.67;;;;;;;2.69;100.00;97895.38;4182572;28;20234;-68
2022/04/05 04:14:11;;;;;;;28.97;19.60;;;;;;;2.73;100.00;97898.50;4189096;28;20236;-68
2022/04/05 04:16:37;;;;;;;29.43;18.83;;;;;;;2.73;100.00;97904.56;4187887;28;21057;-68
2022/04/05 04:19:04;;;;;;;29.07;18.87;;;;;;;2.79;100.00;97903.13;4175277;28;20658;-69
2022/04/05 04:21:31;;;;;;;26.17;18.37;;;;;;;2.85;100.00;97918.22;4185063;28;20231;-66
2022/04/05 04:23:57;;;;;;;27.20;18.07;;;;;;;2.82;100.00;97909.88;4191837;28;20244;-66
2022/04/05 04:26:24;;;;;;;25.97;18.47;;;;;;;2.83;100.00;97924.63;4178106;28;20514;-67
2022/04/05 04:28:53;;;;;;;23.80;17.30;;;;;;;2.82;100.00;97912.50;4185956;28;20234;-68
2022/04/05 04:31:19;;;;;;;28.03;18.63;;;;;;;2.86;100.00;97919.91;4189120;28;20276;-68
2022/04/05 04:33:46;;;;;;;26.17;17.10;;;;;;;2.89;100.00;97914.31;4173932;28;20329;-66
2022/04/05 04:36:13;;;;;;;24.80;16.57;;;;;;;2.95;100.00;97907.63;4183361;28;20240;-66
2022/04/05 04:38:39;;;;;;;22.83;16.90;;;;;;;2.98;100.00;97914.38;4181791;28;20252;-67
2022/04/05 04:41:06;;;;;;;22.83;16.57;;;;;;;3.04;100.00;97917.16;4166108;28;23026;-68
2022/04/05 04:43:32;;;;;;;22.00;15.97;;;;;;;3.08;100.00;97925.56;4180608;28;20253;-67
2022/04/05 04:46:00;;;;;;;24.80;16.07;;;;;;;3.09;100.00;97924.56;4196961;28;20254;-65
2022/04/05 04:48:28;;;;;;;21.97;16.03;;;;;;;3.09;100.00;97912.25;4182017;28;21361;-67
2022/04/05 04:50:55;;;;;;;23.57;15.73;;;;;;;3.16;100.00;97915.03;4187723;28;20299;-68
2022/04/05 04:53:21;;;;;;;21.80;16.30;;;;;;;3.18;100.00;97913.09;4174502;28;20375;-68
2022/04/05 04:55:48;;;;;;;26.73;16.53;;;;;;;3.24;100.00;97922.16;4185167;28;20615;-69
2022/04/05 04:58:35;;;;;;;25.40;16.03;;;;;;;3.23;100.00;97918.72;4182973;28;21068;-68
2022/04/05 05:01:02;;;;;;;22.33;15.47;;;;;;;3.23;100.00;97916.09;4177154;28;20234;-69
2022/04/05 05:03:29;;;;;;;26.77;16.50;;;;;;;3.28;100.00;97919.03;4196844;28;20268;-64
2022/04/05 05:05:56;;;;;;;24.57;16.60;;;;;;;3.30;100.00;97935.47;4189914;28;21804;-67
2022/04/05 05:08:23;;;;;;;24.93;17.33;;;;;;;3.26;100.00;97928.06;4191483;28;20280;-67
2022/04/05 05:10:50;;;;;;;26.67;18.10;;;;;;;3.23;100.00;97928.38;4179490;28;20522;-67
2022/04/05 05:13:17;;;;;;;26.43;17.63;;;;;;;3.21;100.00;97933.81;4173921;28;20229;-66
2022/04/05 05:15:45;;;;;;;27.27;17.97;;;;;;;3.20;100.00;97934.78;4190627;28;20426;-65
2022/04/05 05:18:12;;;;;;;26.23;17.97;;;;;;;3.21;100.00;97922.44;4178989;28;20238;-67
2022/04/05 05:20:38;;;;;;;23.67;16.10;;;;;;;3.26;100.00;97930.69;4192131;28;22186;-68
2022/04/05 05:23:05;;;;;;;24.73;16.60;;;;;;;3.34;100.00;97928.91;4178931;28;21157;-66
2022/04/05 05:25:32;;;;;;;24.37;15.83;;;;;;;3.43;100.00;97921.03;4173044;28;20229;-68
2022/04/05 05:27:58;;;;;;;20.10;13.90;;;;;;;3.55;100.00;97941.59;4181061;28;25456;-66
2022/04/05 05:30:25;;;;;;;20.57;13.57;;;;;;;3.75;100.00;97934.22;4178753;28;20231;-68
2022/04/05 05:32:51;;;;;;;17.83;13.20;;;;;;;3.86;99.45;97937.50;4191788;28;20299;-68
2022/04/05 05:35:20;;;;;;;18.80;13.93;;;;;;;3.88;99.60;97946.06;4178798;28;20307;-69
2022/04/05 05:37:47;;;;;;;18.70;13.23;;;;;;;3.85;99.93;97951.66;4214352;28;20308;-67
2022/04/05 05:40:14;;;;;;;18.50;13.37;;;;;;;3.82;100.00;97947.56;4178472;28;20338;-67
2022/04/05 05:42:58;;;;;;;22.63;14.23;;;;;;;3.73;100.00;97954.59;4208001;28;21336;-67
2022/04/05 05:45:26;;;;;;;17.50;13.30;;;;;;;3.69;100.00;97953.28;4182380;28;20561;-66
2022/04/05 05:47:52;;;;;;;18.20;12.50;;;;;;;3.62;100.00;97957.53;4176871;28;25459;-67
2022/04/05 05:50:20;;;;;;;20.40;13.27;;;;;;;3.50;100.00;97972.81;4186803;28;20236;-68
2022/04/05 05:52:46;;;;;;;17.80;12.33;;;;;;;3.38;100.00;97981.97;4187691;28;20237;-67
2022/04/05 05:55:16;;;;;;;15.93;10.57;;;;;;;3.31;100.00;97981.78;4180656;28;20253;-67
2022/04/05 05:57:43;;;;;;;13.30;9.00;;;;;;;3.15;100.00;97960.72;4180906;28;20234;-69
2022/04/05 06:00:16;;;;;;;12.07;7.97;;;;;;;2.95;100.00;97976.75;4192997;28;21705;-67
2022/04/05 06:02:44;;;;;;;13.13;8.03;;;;;;;2.81;100.00;97979.09;4167944;28;21786;-67
2022/04/05 06:05:11;;;;;;;11.63;7.17;;;;;;;2.72;100.00;97986.13;4210334;28;22572;-68
2022/04/05 06:07:41;;;;;;;11.93;7.17;;;;;;;2.55;100.00;97987.81;4223448;28;20228;-67
2022/04/05 06:10:09;;;;;;;13.97;8.17;;;;;;;2.40;100.00;97994.63;4211038;28;21895;-67
2022/04/05 06:12:40;;;;;;;13.47;7.43;;;;;;;2.44;100.00;97999.41;4195013;28;20565;-68
2022/04/05 06:15:09;;;;;;;14.83;8.00;;;;;;;2.49;100.00;97997.16;4178620;28;20261;-67
2022/04/05 06:17:36;;;;;;;12.07;7.10;;;;;;;2.45;100.00;97987.94;4199062;28;20332;-66
2022/04/05 06:20:05;;;;;;;13.17;7.60;;;;;;;2.45;100.00;97990.56;4192167;28;22158;-66
2022/04/05 06:22:46;;;;;;;16.13;8.63;;;;;;;2.47;100.00;97996.47;4210858;28;20299;-67
2022/04/05 06:25:17;;;;;;;15.33;8.23;;;;;;;2.61;100.00;97991.66;4176476;28;20224;-66
2022/04/05 06:27:43;;;;;;;14.60;8.93;;;;;;;2.67;100.00;98001.50;4196450;28;20254;-69
2022/04/05 06:30:11;;;;;;;14.27;9.77;;;;;;;2.77;100.00;98010.13;4173681;28;20238;-68
2022/04/05 06:32:38;;;;;;;17.63;10.67;;;;;;;2.83;100.00;98003.41;4205220;28;20248;-69
2022/04/05 06:35:06;;;;;;;14.13;10.47;;;;;;;3.06;100.00;98001.88;4189286;28;20366;-68
2022/04/05 06:37:35;;;;;;;14.63;10.50;;;;;;;3.21;100.00;98002.13;4191547;28;20238;-68
2022/04/05 06:40:04;;;;;;;17.30;11.00;;;;;;;3.43;100.00;98007.78;4221733;28;20236;-67
2022/04/05 06:42:30;;;;;;;16.53;11.20;;;;;;;3.56;100.00;98002.91;4175808;28;20517;-68
2022/04/05 06:44:57;;;;;;;16.23;10.90;;;;;;;3.62;100.00;98004.88;4192258;28;21369;-65
2022/04/05 06:47:23;;;;;;;17.60;11.03;;;;;;;3.69;100.00;98011.13;4205765;28;20232;-65
2022/04/05 06:49:50;;;;;;;20.37;13.00;;;;;;;3.85;100.00;98004.28;4189084;28;20228;-65
2022/04/05 06:52:16;;;;;;;17.60;11.80;;;;;;;4.04;100.00;97998.69;4199352;28;23125;-68
2022/04/05 06:54:43;;;;;;;15.93;11.77;;;;;;;4.03;100.00;98004.97;4191658;28;20237;-71
2022/04/05 06:57:10;;;;;;;14.93;10.87;;;;;;;4.02;100.00;98000.66;4183241;28;20243;-69
2022/04/05 06:59:41;;;;;;;11.47;8.60;;;;;;;4.03;100.00;97994.44;4190206;28;20357;-73
2022/04/05 07:02:07;;;;;;;10.90;7.17;;;;;;;4.05;98.84;97999.50;4198962;28;25660;-65
2022/04/05 07:04:34;;;;;;;9.77;7.30;;;;;;;4.16;96.75;98001.81;4184058;28;20515;-67
2022/04/05 07:07:00;;;;;;;10.20;7.07;;;;;;;4.62;95.63;97991.59;4182140;28;20248;-66
2022/04/05 07:09:30;;;;;;;10.27;6.50;;;;;;;4.89;93.25;98014.09;4203303;28;20975;-65
2022/04/05 07:12:01;;;;;;;8.93;6.13;;;;;;;5.67;87.10;98023.84;4197952;28;20312;-61
2022/04/05 07:14:31;;;;;;;6.43;4.93;;;;;;;5.20;84.96;98016.00;4182005;28;20686;-67
2022/04/05 07:16:58;;;;;;;9.27;5.00;;;;;;;5.27;85.15;98022.22;4216294;28;22291;-64
2022/04/05 07:19:24;;;;;;;5.90;4.37;;;;;;;6.52;81.13;98022.94;4173497;28;21191;-66
2022/04/05 07:21:51;;;;;;;5.77;3.97;;;;;;;6.20;78.34;98029.31;4201590;28;20236;-68
2022/04/05 07:24:18;;;;;;;7.20;4.57;;;;;;;5.50;80.59;98012.56;4193191;28;20233;-64
2022/04/05 07:26:45;;;;;;;9.33;4.23;;;;;;;5.16;80.55;98033.16;4182139;28;20290;-67
2022/04/05 07:29:12;;;;;;;5.27;3.23;;;;;;;4.84;80.00;98032.22;4178014;28;21229;-64
2022/04/05 07:31:39;;;;;;;7.03;3.47;;;;;;;4.82;80.96;98028.94;4168104;28;20310;-64
2022/04/05 07:34:06;;;;;;;5.33;3.20;;;;;;;4.50;82.96;98043.78;4188927;28;25081;-65
2022/04/05 07:36:32;;;;;;;11.50;3.47;;;;;;;4.23;84.83;98061.53;4189511;28;21643;-65
2022/04/05 07:38:59;;;;;;;7.60;3.67;;;;;;;3.79;89.47;98046.03;4188835;28;21608;-64
2022/04/05 07:41:26;;;;;;;8.43;3.37;;;;;;;3.30;90.45;98050.28;4183325;28;20305;-65
2022/04/05 07:43:52;;;;;;;7.27;3.30;;;;;;;3.15;91.70;98073.72;4182919;28;20316;-64
2022/04/05 07:46:19;;;;;;;8.00;3.80;;;;;;;3.20;91.97;98063.53;4184236;28;20236;-63
2022/04/05 07:48:49;;;;;;;6.07;2.93;;;;;;;3.21;92.12;98064.34;4189266;28;20244;-63
2022/04/05 07:51:16;;;;;;;5.70;3.03;;;;;;;3.31;89.71;98068.53;4184184;28;20239;-64
2022/04/05 07:53:43;;;;;;;5.97;2.97;;;;;;;3.52;90.20;98072.56;4207356;28;20228;-61
2022/04/05 07:56:12;;;;;;;4.33;2.90;;;;;;;4.10;86.68;98073.56;4185154;28;20281;-64
2022/04/05 07:58:40;;;;;;;8.90;3.20;;;;;;;4.79;85.15;98074.06;4206297;28;20241;-64
2022/04/05 08:01:09;;;;;;;6.90;2.63;;;;;;;6.75;73.74;98091.63;4192659;28;25421;-65
2022/04/05 08:03:37;;;;;;;5.10;2.43;;;;;;;6.56;72.46;98084.19;4187063;28;20225;-64
2022/04/05 08:06:04;;;;;;;8.90;3.17;;;;;;;5.57;77.01;98061.97;4192414;28;20310;-66
2022/04/05 08:08:30;;;;;;;5.20;2.53;;;;;;;5.11;78.18;98081.09;4197685;28;20513;-65
2022/04/05 08:11:17;;;;;;;6.17;2.60;;;;;;;6.68;69.28;98084.59;4224280;28;20669;-66
2022/04/05 08:13:44;;;;;;;5.90;2.30;;;;;;;6.81;68.61;98073.41;4201515;28;20232;-65
2022/04/05 08:16:10;;;;;;;6.03;2.00;;;;;;;6.31;69.05;98083.56;4192431;28;22009;-66
2022/04/05 08:18:37;;;;;;;4.67;2.20;;;;;;;6.79;68.25;98080.69;4205842;28;20358;-65
2022/04/05 08:21:04;;;;;;;6.43;1.83;;;;;;;7.19;63.42;98101.47;4197466;28;20244;-67
2022/04/05 08:23:30;;;;;;;7.90;2.17;;;;;;;7.36;63.32;98093.38;4198170;28;20348;-66
2022/04/05 08:25:58;;;;;;;9.07;3.13;;;;;;;7.43;63.05;98104.84;4202047;28;26804;-65
2022/04/05 08:28:26;;;;;;;4.83;1.90;;;;;;;7.86;63.75;98109.47;4189607;28;20228;-64
2022/04/05 08:30:52;;;;;;;4.70;1.90;;;;;;;7.34;62.26;98117.34;4222345;28;21270;-68
2022/04/05 08:33:19;;;;;;;11.10;2.33;;;;;;;7.39;62.17;98107.03;4210501;28;20462;-67
2022/04/05 08:35:46;;;;;;;7.13;1.90;;;;;;;7.05;62.51;98126.06;4200744;28;21263;-67
2022/04/05 08:38:12;;;;;;;4.63;2.23;;;;;;;6.49;61.40;98118.44;4189049;28;22925;-68
2022/04/05 08:40:39;;;;;;;6.10;1.93;;;;;;;6.62;60.33;98128.41;4199552;28;21577;-65
2022/04/05 08:43:06;;;;;;;7.10;1.87;;;;;;;6.82;60.85;98125.28;4168446;28;20313;-65
2022/04/05 08:45:32;;;;;;;6.97;1.60;;;;;;;6.94;59.73;98137.88;4185943;28;20416;-65
2022/04/05 08:47:59;;;;;;;9.13;2.00;;;;;;;6.67;61.06;98128.72;4201812;28;20224;-64
2022/04/05 08:50:27;;;;;;;8.57;1.60;;;;;;;6.86;60.25;98137.13;4174880;28;20235;-67
2022/04/05 08:53:01;;;;;;;5.77;1.60;;;;;;;6.69;59.92;98139.91;4197374;28;21681;-65
2022/04/05 08:55:35;;;;;;;8.73;2.17;;;;;;;6.81;60.63;98132.38;4199910;28;20245;-65
2022/04/05 08:58:02;;;;;;;8.23;2.07;;;;;;;6.80;59.71;98141.31;4198483;28;20294;-65
2022/04/05 09:00:32;;;;;;;9.07;2.03;;;;;;;6.46;59.08;98139.06;4199058;28;21640;-66
2022/04/05 09:03:04;;;;;;;7.73;1.97;;;;;;;6.37;59.13;98158.63;4208036;28;20236;-64
2022/04/05 09:05:35;;;;;;;7.27;1.77;;;;;;;6.68;59.46;98140.09;4178967;28;20239;-63
2022/04/05 09:08:20;;;;;;;7.40;1.80;;;;;;;6.58;56.89;98161.47;4208639;28;20242;-74
2022/04/05 09:11:09;;;;;;;8.40;1.77;;;;;;;6.64;57.57;98158.09;4286632;28;20232;-70
2022/04/05 09:13:35;;;;;;;8.20;2.13;;;;;;;6.80;59.14;98172.22;4241123;28;22160;-67
2022/04/05 09:16:05;;;;;;;9.40;3.30;;;;;;;7.24;58.09;98172.34;4174150;28;22064;-65
2022/04/05 09:18:36;;;;;;;9.67;2.30;;;;;;;7.39;57.23;98162.59;4199233;28;20552;-67
2022/04/05 09:21:05;;;;;;;12.77;1.87;;;;;;;7.30;57.60;98161.03;4199626;28;22496;-68
2022/04/05 09:23:41;;;;;;;8.57;2.00;;;;;;;7.33;55.84;98171.28;4195450;28;20233;-66
2022/04/05 09:26:09;;;;;;;4.53;1.63;;;;;;;7.29;55.56;98155.94;4192082;28;21241;-67
2022/04/05 09:28:41;;;;;;;6.20;1.60;;;;;;;7.14;57.35;98179.69;4197601;28;20287;-68
2022/04/05 09:31:09;;;;;;;9.00;3.13;;;;;;;7.13;56.21;98168.28;4179781;28;20955;-67
2022/04/05 09:33:38;;;;;;;7.97;1.70;;;;;;;6.80;56.70;98183.59;4182895;28;25443;-68
2022/04/05 09:36:13;;;;;;;5.83;1.70;;;;;;;6.88;57.32;98180.06;4184918;28;21616;-63
2022/04/05 09:38:43;;;;;;;6.30;1.50;;;;;;;6.84;53.28;98184.09;4196048;28;20231;-66
2022/04/05 09:41:16;;;;;;;9.67;1.77;;;;;;;7.18;56.28;98181.81;4175732;28;22745;-66
2022/04/05 09:44:09;;;;;;;8.30;1.87;;;;;;;7.37;54.50;98182.31;4190909;28;20232;-67
2022/04/05 09:46:36;;;;;;;6.30;1.50;;;;;;;7.12;54.99;98190.47;4199244;28;20247;-64
2022/04/05 09:49:11;;;;;;;8.47;1.70;;;;;;;7.45;55.35;98184.88;4165228;28;20236;-67
2022/04/05 09:51:39;;;;;;;8.03;2.57;;;;;;;7.52;48.26;98192.94;4202436;28;21192;-68
2022/04/05 09:54:06;;;;;;;6.93;1.60;;;;;;;7.10;46.53;98203.03;4181267;28;25380;-65
2022/04/05 09:56:40;;;;;;;6.50;1.67;;;;;;;7.04;48.77;98208.22;4183263;28;20311;-66
2022/04/05 09:59:18;;;;;;;9.07;2.20;;;;;;;7.00;48.02;98189.25;4184627;28;21585;-67
2022/04/05 10:01:46;;;;;;;4.30;1.37;;;;;;;7.07;50.01;98200.75;4175132;28;20242;-66
2022/04/05 10:04:15;;;;;;;5.33;1.60;;;;;;;7.12;51.72;98208.97;4200859;28;20230;-67
2022/04/05 10:06:46;;;;;;;7.03;1.47;;;;;;;7.34;52.68;98214.41;4162023;28;20255;-65
2022/04/05 10:09:15;;;;;;;7.47;1.70;;;;;;;7.32;50.80;98219.06;4194025;28;20369;-65
2022/04/05 10:11:43;;;;;;;6.70;1.60;;;;;;;7.29;49.70;98214.13;4180414;28;20252;-64
2022/04/05 10:14:12;;;;;;;4.93;1.40;;;;;;;7.34;50.69;98228.47;4179913;28;23496;-65
2022/04/05 10:16:39;;;;;;;6.57;1.73;;;;;;;7.09;51.01;98225.19;4196465;28;20244;-66
2022/04/05 10:19:09;;;;;;;6.80;1.40;;;;;;;6.86;53.33;98208.50;4197073;28;20557;-65
2022/04/05 10:21:38;;;;;;;6.10;1.37;;;;;;;6.77;53.44;98234.19;4173895;28;20282;-66
2022/04/05 10:24:05;;;;;;;9.30;1.50;;;;;;;6.96;53.06;98224.97;4188010;28;20242;-65
2022/04/05 10:26:34;;;;;;;8.27;1.60;;;;;;;6.87;53.79;98223.38;4181100;28;20233;-69
2022/04/05 10:29:04;;;;;;;7.43;2.20;;;;;;;6.86;51.54;98245.50;4175576;28;20343;-66
2022/04/05 10:32:09;;;;;;;7.87;2.13;;;;;;;7.02;50.50;98240.13;4194683;28;20248;-68
2022/04/05 10:34:55;;;;;;;4.73;1.57;;;;;;;7.03;53.24;98239.13;4213822;28;21635;-65
2022/04/05 10:37:37;;;;;;;8.77;1.57;;;;;;;7.06;52.20;98252.00;4193216;28;20705;-65
2022/04/05 10:40:05;;;;;;;5.90;2.00;;;;;;;6.93;52.68;98241.16;4159982;28;20310;-66
2022/04/05 10:42:37;;;;;;;9.47;2.10;;;;;;;7.18;53.04;98261.16;4180004;28;21042;-69
2022/04/05 10:45:21;;;;;;;9.03;1.83;;;;;;;7.34;50.08;98243.53;4182279;28;20736;-63
2022/04/05 10:48:18;;;;;;;5.73;1.43;;;;;;;7.29;50.10;98262.56;4190564;28;22406;-70
2022/04/05 10:51:00;;;;;;;9.67;1.40;;;;;;;7.25;47.62;98249.88;4186923;28;20411;-64
2022/04/05 10:54:17;;;;;;;5.50;1.60;;;;;;;7.19;49.75;98276.03;4180772;28;21770;-67
2022/04/05 10:56:30;;;;;;;6.77;1.80;;;;;;;6.77;51.70;98281.78;4194612;28;20826;-64
2022/04/05 10:59:03;;;;;;;8.07;1.80;;;;;;;7.05;52.13;98291.84;4195045;28;20228;-67
2022/04/05 11:01:39;;;;;;;5.37;1.30;;;;;;;7.57;48.17;98291.13;4188411;28;20241;-65
2022/04/05 11:04:13;;;;;;;7.20;1.30;;;;;;;7.65;44.95;98293.69;4194745;28;21907;-69
2022/04/05 11:06:59;;;;;;;4.57;1.10;;;;;;;7.44;44.96;98297.00;4189848;28;20487;-63
2022/04/05 11:09:28;;;;;;;7.00;1.63;;;;;;;7.39;45.40;98307.31;4191073;28;20240;-64
2022/04/05 11:11:55;;;;;;;5.27;1.23;;;;;;;7.32;45.84;98303.72;4169237;28;20239;-64
2022/04/05 11:14:42;;;;;;;6.63;1.30;;;;;;;6.98;46.55;98307.59;4176043;28;20252;-63
2022/04/05 11:17:10;;;;;;;5.33;1.20;;;;;;;6.94;47.50;98312.38;4195807;28;20662;-64
2022/04/05 11:19:39;;;;;;;7.17;1.40;;;;;;;7.03;46.51;98321.09;4179444;28;20242;-64
2022/04/05 11:22:25;;;;;;;9.40;1.50;;;;;;;6.86;45.65;98308.97;4199870;28;21786;-64
2022/04/05 11:24:53;;;;;;;7.07;1.47;;;;;;;6.96;44.53;98333.38;4201942;28;20238;-65
2022/04/05 11:27:35;;;;;;;6.73;1.33;;;;;;;6.91;45.78;98317.22;4199085;28;20251;-64
2022/04/05 11:30:20;;;;;;;5.80;1.53;;;;;;;6.80;46.00;98329.00;4193905;28;20292;-63
2022/04/05 11:33:12;;;;;;;6.20;1.50;;;;;;;6.82;45.17;98334.94;4179958;28;20722;-64
2022/04/05 11:35:44;;;;;;;5.07;1.30;;;;;;;6.89;44.17;98340.38;4195027;28;20234;-64